createdAt,value
2022-11-19T00:02:14.844Z,58.18
2022-11-19T00:04:43.243Z,58.24
2022-11-19T00:07:11.557Z,58.17
2022-11-19T00:09:41.243Z,57.98
2022-11-19T00:12:29.054Z,57.88
2022-11-19T00:14:57.339Z,58.00
2022-11-19T00:17:25.623Z,57.67
2022-11-19T00:19:53.835Z,57.60
2022-11-19T00:22:22.136Z,57.54
2022-11-19T00:24:51.775Z,57.46
2022-11-19T00:27:20.067Z,57.52
2022-11-19T00:29:48.326Z,57.41
2022-11-19T00:32:16.761Z,57.54
2022-11-19T00:34:45.028Z,57.41
2022-11-19T00:37:13.214Z,57.39
2022-11-19T00:39:41.512Z,57.32
2022-11-19T00:42:11.170Z,57.35
2022-11-19T00:44:39.488Z,57.54
2022-11-19T00:47:07.780Z,57.47
2022-11-19T00:49:36.140Z,57.58
2022-11-19T00:52:05.083Z,57.73
2022-11-19T00:54:34.435Z,57.74
2022-11-19T00:57:02.750Z,57.79
2022-11-19T00:59:32.394Z,57.80
2022-11-19T01:02:00.664Z,57.89
2022-11-19T01:04:28.966Z,57.94
2022-11-19T01:06:57.270Z,58.08
2022-11-19T01:09:25.865Z,57.91
2022-11-19T01:11:54.211Z,57.95
2022-11-19T01:14:22.658Z,58.37
2022-11-19T01:16:52.262Z,58.28
2022-11-19T01:19:20.782Z,58.39
2022-11-19T01:21:49.347Z,58.37
2022-11-19T01:24:17.637Z,58.34
2022-11-19T01:26:46.342Z,58.64
2022-11-19T01:29:14.978Z,58.51
2022-11-19T01:31:43.317Z,58.58
2022-11-19T01:34:12.889Z,58.60
2022-11-19T01:36:41.183Z,58.62
2022-11-19T01:39:09.531Z,58.64
2022-11-19T01:41:37.813Z,58.69
2022-11-19T01:44:08.348Z,58.77
2022-11-19T01:46:39.743Z,58.71
2022-11-19T01:49:14.362Z,58.62
2022-11-19T01:51:49.847Z,58.22
2022-11-19T01:54:25.568Z,58.37
2022-11-19T01:56:54.611Z,58.19
2022-11-19T01:59:23.278Z,58.15
2022-11-19T02:01:51.595Z,58.11
2022-11-19T02:04:22.805Z,58.09
2022-11-19T02:06:51.548Z,58.07
2022-11-19T02:09:20.433Z,58.05
2022-11-19T02:12:24.597Z,57.97
2022-11-19T02:15:09.422Z,58.12
2022-11-19T02:17:58.355Z,58.16
2022-11-19T02:20:57.624Z,58.15
2022-11-19T02:23:58.673Z,58.14
2022-11-19T02:27:14.292Z,58.23
2022-11-19T02:30:05.180Z,58.24
2022-11-19T02:32:37.906Z,57.98
2022-11-19T02:35:17.168Z,57.76
2022-11-19T02:37:51.995Z,57.91
2022-11-19T02:40:26.307Z,57.86
2022-11-19T02:43:05.935Z,58.15
2022-11-19T02:45:40.635Z,57.76
2022-11-19T02:48:15.648Z,57.76
2022-11-19T02:50:48.243Z,57.78
2022-11-19T02:53:16.624Z,57.66
2022-11-19T02:56:07.701Z,57.66
2022-11-19T02:58:57.521Z,57.67
2022-11-19T03:01:46.745Z,57.62
2022-11-19T03:04:33.506Z,57.70
2022-11-19T03:07:06.803Z,57.66
2022-11-19T03:09:40.392Z,57.74
2022-11-19T03:12:19.156Z,57.54
2022-11-19T03:15:14.027Z,57.36
2022-11-19T03:18:02.424Z,57.14
2022-11-19T03:20:38.467Z,57.18
2022-11-19T03:23:13.335Z,56.95
2022-11-19T03:25:46.399Z,57.01
2022-11-19T03:28:21.024Z,57.05
2022-11-19T03:30:52.320Z,56.99
2022-11-19T03:33:25.696Z,56.92
2022-11-19T03:35:58.914Z,56.97
2022-11-19T03:38:31.934Z,56.94
2022-11-19T03:41:02.291Z,56.98
2022-11-19T03:43:36.779Z,56.97
2022-11-19T03:46:08.071Z,56.91
2022-11-19T03:48:39.265Z,56.90
2022-11-19T03:51:13.562Z,56.89
2022-11-19T03:53:41.936Z,56.87
2022-11-19T03:56:14.897Z,56.74
2022-11-19T03:58:46.251Z,56.86
2022-11-19T04:01:15.071Z,56.71
2022-11-19T04:04:04.721Z,56.64
2022-11-19T04:06:33.014Z,56.71
2022-11-19T04:09:01.241Z,56.74
2022-11-19T04:11:29.463Z,56.70
2022-11-19T04:13:57.687Z,56.74
2022-11-19T04:16:25.919Z,56.46
2022-11-19T04:18:55.583Z,56.37
2022-11-19T04:21:23.823Z,56.41
2022-11-19T04:23:52.080Z,56.30
2022-11-19T04:26:20.327Z,56.14
2022-11-19T04:28:48.568Z,56.00
2022-11-19T04:31:18.180Z,55.98
2022-11-19T04:33:46.716Z,55.98
2022-11-19T04:36:16.303Z,55.89
2022-11-19T04:38:44.592Z,55.85
2022-11-19T04:41:12.896Z,55.79
2022-11-19T04:43:41.340Z,55.68
2022-11-19T04:46:09.689Z,55.78
2022-11-19T04:48:37.954Z,55.54
2022-11-19T04:51:06.267Z,55.58
2022-11-19T04:53:35.907Z,55.68
2022-11-19T04:56:04.209Z,55.61
2022-11-19T04:58:32.490Z,55.52
2022-11-19T05:01:00.972Z,55.31
2022-11-19T05:03:29.349Z,55.42
2022-11-19T05:05:57.576Z,55.29
2022-11-19T05:08:26.215Z,55.16
2022-11-19T05:10:55.875Z,55.21
2022-11-19T05:13:24.183Z,55.13
2022-11-19T05:15:52.504Z,55.03
2022-11-19T05:18:20.851Z,55.09
2022-11-19T05:20:49.492Z,55.08
2022-11-19T05:23:17.714Z,55.03
2022-11-19T05:25:45.980Z,55.23
2022-11-19T05:28:15.654Z,54.94
2022-11-19T05:30:43.945Z,55.18
2022-11-19T05:33:12.264Z,55.41
2022-11-19T05:35:40.543Z,55.33
2022-11-19T05:38:08.843Z,55.50
2022-11-19T05:40:37.167Z,55.62
2022-11-19T05:43:06.767Z,55.60
2022-11-19T05:45:36.448Z,55.32
2022-11-19T05:48:04.842Z,55.44
2022-11-19T05:50:33.157Z,55.54
2022-11-19T05:53:01.409Z,55.47
2022-11-19T05:55:29.663Z,55.62
2022-11-19T05:57:57.891Z,55.32
2022-11-19T06:00:26.212Z,55.37
2022-11-19T06:02:56.368Z,55.63
2022-11-19T06:05:24.710Z,55.50
2022-11-19T06:07:53.031Z,55.51
2022-11-19T06:10:21.345Z,55.46
2022-11-19T06:12:49.623Z,55.39
2022-11-19T06:15:18.100Z,55.57
2022-11-19T06:17:46.445Z,55.64
2022-11-19T06:20:16.252Z,55.66
2022-11-19T06:22:44.473Z,55.65
2022-11-19T06:25:12.796Z,55.63
2022-11-19T06:27:41.065Z,55.75
2022-11-19T06:30:11.078Z,55.64
2022-11-19T06:32:39.335Z,55.59
2022-11-19T06:35:08.666Z,55.43
2022-11-19T06:37:38.498Z,55.37
2022-11-19T06:40:08.751Z,55.40
2022-11-19T06:42:39.635Z,55.41
2022-11-19T06:45:11.247Z,55.54
2022-11-19T06:47:41.080Z,55.43
2022-11-19T06:50:11.831Z,55.45
2022-11-19T06:52:41.720Z,55.47
2022-11-19T06:55:11.385Z,55.44
2022-11-19T06:57:39.970Z,55.66
2022-11-19T07:00:10.339Z,55.37
2022-11-19T07:02:38.948Z,55.53
2022-11-19T07:05:08.399Z,55.43
2022-11-19T07:07:36.841Z,55.57
2022-11-19T07:10:07.750Z,55.52
2022-11-19T07:12:36.018Z,55.78
2022-11-19T07:15:05.261Z,55.71
2022-11-19T07:17:34.091Z,55.59
2022-11-19T07:20:02.352Z,55.59
2022-11-19T07:22:30.635Z,55.57
2022-11-19T07:24:58.955Z,55.69
2022-11-19T07:27:28.592Z,55.91
2022-11-19T07:29:56.864Z,55.69
2022-11-19T07:32:25.103Z,55.67
2022-11-19T07:34:53.577Z,55.83
2022-11-19T07:37:21.975Z,55.84
2022-11-19T07:39:50.248Z,56.07
2022-11-19T07:42:36.235Z,55.61
2022-11-19T07:45:07.558Z,55.67
2022-11-19T07:47:35.967Z,55.82
2022-11-19T07:50:05.524Z,55.79
2022-11-19T07:52:33.846Z,55.60
2022-11-19T07:55:02.444Z,56.01
2022-11-19T07:57:30.805Z,55.96
2022-11-19T07:59:59.191Z,56.09
2022-11-19T08:02:28.811Z,56.10
2022-11-19T08:04:57.043Z,55.94
2022-11-19T08:07:25.368Z,56.09
2022-11-19T08:09:53.661Z,56.10
2022-11-19T08:12:22.091Z,56.08
2022-11-19T08:14:50.471Z,56.30
2022-11-19T08:17:36.379Z,56.41
2022-11-19T08:20:07.962Z,56.27
2022-11-19T08:22:37.088Z,56.38
2022-11-19T08:25:06.333Z,56.23
2022-11-19T08:27:34.981Z,56.19
2022-11-19T08:30:03.336Z,56.55
2022-11-19T08:32:31.634Z,56.29
2022-11-19T08:34:59.889Z,56.22
2022-11-19T08:37:29.572Z,56.17
2022-11-19T08:39:57.861Z,56.44
2022-11-19T08:42:43.728Z,56.40
2022-11-19T08:45:14.607Z,56.46
2022-11-19T08:47:46.382Z,56.50
2022-11-19T08:50:14.780Z,56.33
2022-11-19T08:52:44.656Z,56.44
2022-11-19T08:55:13.031Z,56.43
2022-11-19T08:57:41.274Z,56.39
2022-11-19T09:00:11.318Z,56.42
2022-11-19T09:02:39.580Z,56.28
2022-11-19T09:05:14.266Z,56.46
2022-11-19T09:07:44.308Z,56.37
2022-11-19T09:10:12.641Z,56.25
2022-11-19T09:12:40.977Z,56.29
2022-11-19T09:15:10.557Z,56.24
2022-11-19T09:17:43.767Z,56.05
2022-11-19T09:20:14.862Z,55.93
2022-11-19T09:22:44.503Z,56.07
2022-11-19T09:25:13.072Z,56.05
2022-11-19T09:27:41.362Z,56.01
2022-11-19T09:30:10.804Z,56.18
2022-11-19T09:32:39.085Z,56.24
2022-11-19T09:35:08.632Z,56.28
2022-11-19T09:37:36.925Z,56.23
2022-11-19T09:40:09.821Z,56.36
2022-11-19T09:42:44.334Z,56.22
2022-11-19T09:45:21.015Z,56.40
2022-11-19T09:48:16.959Z,56.44
2022-11-19T09:50:54.311Z,56.50
2022-11-19T09:53:24.589Z,56.42
2022-11-19T09:55:55.325Z,56.23
2022-11-19T09:58:27.994Z,56.41
2022-11-19T10:00:56.329Z,56.48
2022-11-19T10:03:32.791Z,56.35
2022-11-19T10:06:21.343Z,56.39
2022-11-19T10:09:19.312Z,56.28
2022-11-19T10:12:07.520Z,56.41
2022-11-19T10:14:58.244Z,56.33
2022-11-19T10:17:37.799Z,56.52
2022-11-19T10:20:24.576Z,56.43
2022-11-19T10:23:01.975Z,56.54
2022-11-19T10:25:34.268Z,56.56
2022-11-19T10:28:13.040Z,56.39
2022-11-19T10:30:44.435Z,56.42
2022-11-19T10:33:18.277Z,56.63
2022-11-19T10:35:51.914Z,56.31
2022-11-19T10:38:26.083Z,56.46
2022-11-19T10:40:59.683Z,56.51
2022-11-19T10:43:35.953Z,56.39
2022-11-19T10:46:07.563Z,56.33
2022-11-19T10:48:42.803Z,56.12
2022-11-19T10:51:19.544Z,56.36
2022-11-19T10:53:48.368Z,56.14
2022-11-19T10:56:21.182Z,56.22
2022-11-19T10:58:55.771Z,56.16
2022-11-19T11:01:31.349Z,56.23
2022-11-19T11:04:08.286Z,56.40
2022-11-19T11:06:53.493Z,56.25
2022-11-19T11:09:33.864Z,56.34
2022-11-19T11:12:29.818Z,56.50
2022-11-19T11:15:08.456Z,56.58
2022-11-19T11:17:38.673Z,56.51
2022-11-19T11:20:22.034Z,56.50
2022-11-19T11:22:52.258Z,56.41
2022-11-19T11:25:24.140Z,56.62
2022-11-19T11:28:07.356Z,56.42
2022-11-19T11:30:37.005Z,56.50
2022-11-19T11:33:32.991Z,56.73
2022-11-19T11:36:06.286Z,56.63
2022-11-19T11:38:43.465Z,56.64
2022-11-19T11:44:06.515Z,56.59
2022-11-19T11:46:43.315Z,56.72
2022-11-19T11:49:27.407Z,56.72
2022-11-19T11:52:08.294Z,56.80
2022-11-19T11:54:37.483Z,56.69
2022-11-19T11:57:17.744Z,56.54
2022-11-19T11:59:46.441Z,56.50
2022-11-19T12:02:27.032Z,56.59
2022-11-19T12:04:57.026Z,56.58
2022-11-19T12:08:14.973Z,56.70
2022-11-19T12:10:50.842Z,56.48
2022-11-19T12:13:48.909Z,56.61
2022-11-19T12:16:32.012Z,56.70
2022-11-19T12:19:30.936Z,56.58
2022-11-19T12:22:09.855Z,56.62
2022-11-19T12:25:01.495Z,56.51
2022-11-19T12:27:39.643Z,56.76
2022-11-19T12:30:21.280Z,56.65
2022-11-19T12:33:21.799Z,56.70
2022-11-19T12:36:02.844Z,56.80
2022-11-19T12:38:44.355Z,56.60
2022-11-19T12:41:49.186Z,56.70
2022-11-19T12:44:33.551Z,56.66
2022-11-19T12:47:13.057Z,56.75
2022-11-19T12:49:57.904Z,56.81
2022-11-19T12:52:53.034Z,56.79
2022-11-19T12:55:29.814Z,56.72
2022-11-19T12:58:08.643Z,56.84
2022-11-19T13:00:43.779Z,56.95
2022-11-19T13:03:16.603Z,57.10
2022-11-19T13:05:52.981Z,56.84
2022-11-19T13:08:31.261Z,57.02
2022-11-19T13:11:09.327Z,57.03
2022-11-19T13:13:42.848Z,56.82
2022-11-19T13:16:14.461Z,56.76
2022-11-19T13:18:47.847Z,56.75
2022-11-19T13:21:27.864Z,56.85
2022-11-19T13:23:57.945Z,56.67
2022-11-19T13:26:31.411Z,56.93
2022-11-19T13:29:10.274Z,56.82
2022-11-19T13:31:44.502Z,56.75
2022-11-19T13:34:20.787Z,56.86
2022-11-19T13:37:00.797Z,56.70
2022-11-19T13:39:36.546Z,56.69
2022-11-19T13:42:24.656Z,56.58
2022-11-19T13:44:53.323Z,56.54
2022-11-19T13:47:27.701Z,56.50
2022-11-19T13:50:00.406Z,56.49
2022-11-19T13:52:32.924Z,56.47
2022-11-19T13:55:02.937Z,56.33
2022-11-19T13:57:34.074Z,56.18
2022-11-19T14:00:06.742Z,56.04
2022-11-19T14:03:04.306Z,56.00
2022-11-19T14:05:53.992Z,56.21
2022-11-19T14:08:46.681Z,56.06
2022-11-19T14:11:38.834Z,56.15
2022-11-19T14:14:36.632Z,56.36
2022-11-19T14:17:34.139Z,56.32
2022-11-19T14:20:19.668Z,56.40
2022-11-19T14:23:15.072Z,56.49
2022-11-19T14:26:03.979Z,56.30
2022-11-19T14:28:48.480Z,56.36
2022-11-19T14:31:18.856Z,56.35
2022-11-19T14:34:04.082Z,56.49
2022-11-19T14:36:45.192Z,56.59
2022-11-19T14:39:27.576Z,56.51
2022-11-19T14:42:14.806Z,56.40
2022-11-19T14:44:45.233Z,56.29
2022-11-19T14:47:35.648Z,56.39
2022-11-19T14:50:08.634Z,56.23
2022-11-19T14:52:39.985Z,56.50
2022-11-19T14:55:22.700Z,56.41
2022-11-19T14:57:59.709Z,56.13
2022-11-19T15:00:34.179Z,56.25
2022-11-19T15:03:04.830Z,56.30
2022-11-19T15:05:36.806Z,56.23
2022-11-19T15:08:50.462Z,56.14
2022-11-19T15:11:20.077Z,56.41
2022-11-19T15:13:49.937Z,56.25
2022-11-19T15:16:23.419Z,56.11
2022-11-19T15:19:23.160Z,56.00
2022-11-19T15:22:30.953Z,56.21
2022-11-19T15:25:20.487Z,56.41
2022-11-19T15:28:01.915Z,56.45
2022-11-19T15:30:50.142Z,56.43
2022-11-19T15:34:09.934Z,56.59
2022-11-19T15:36:41.715Z,56.35
2022-11-19T15:39:17.979Z,56.55
2022-11-19T15:42:01.341Z,56.64
2022-11-19T15:44:42.963Z,56.40
2022-11-19T15:47:17.229Z,56.59
2022-11-19T15:49:48.426Z,56.55
2022-11-19T15:52:23.802Z,56.53
2022-11-19T15:54:52.078Z,56.61
2022-11-19T15:57:24.711Z,56.52
2022-11-19T15:59:57.864Z,56.43
2022-11-19T16:02:38.851Z,56.35
2022-11-19T16:05:20.471Z,56.52
2022-11-19T16:07:49.544Z,56.65
2022-11-19T16:10:26.099Z,56.31
2022-11-19T16:13:13.602Z,56.55
2022-11-19T16:16:07.001Z,56.43
2022-11-19T16:18:35.330Z,56.58
2022-11-19T16:21:06.147Z,57.00
2022-11-19T16:23:54.396Z,57.07
2022-11-19T16:26:23.827Z,57.06
2022-11-19T16:28:52.133Z,56.84
2022-11-19T16:31:20.434Z,56.84
2022-11-19T16:33:55.760Z,56.78
2022-11-19T16:36:26.271Z,57.03
2022-11-19T16:38:55.732Z,56.77
2022-11-19T16:41:43.447Z,56.83
2022-11-19T16:44:15.352Z,56.89
2022-11-19T16:46:44.087Z,56.88
2022-11-19T16:49:30.853Z,56.89
2022-11-19T16:52:03.060Z,57.16
2022-11-19T16:54:51.548Z,57.34
2022-11-19T16:57:23.292Z,57.15
2022-11-19T16:59:54.955Z,57.22
2022-11-19T17:02:26.778Z,57.24
2022-11-19T17:04:55.172Z,57.18
2022-11-19T17:07:27.941Z,57.48
2022-11-19T17:10:30.282Z,57.20
2022-11-19T17:13:02.754Z,57.19
2022-11-19T17:15:40.057Z,57.48
2022-11-19T17:18:18.181Z,57.19
2022-11-19T17:20:53.286Z,57.42
2022-11-19T17:23:25.429Z,57.15
2022-11-19T17:25:56.488Z,57.42
2022-11-19T17:28:35.161Z,57.43
2022-11-19T17:31:07.605Z,57.39
2022-11-19T17:33:37.141Z,57.35
2022-11-19T17:36:05.924Z,57.57
2022-11-19T17:38:36.151Z,57.55
2022-11-19T17:41:07.451Z,57.36
2022-11-19T17:43:56.203Z,57.31
2022-11-19T17:46:25.857Z,57.51
2022-11-19T17:48:54.929Z,57.48
2022-11-19T17:51:26.059Z,57.29
2022-11-19T17:53:57.941Z,57.24
2022-11-19T17:56:29.038Z,57.46
2022-11-19T17:58:59.679Z,57.57
2022-11-19T18:01:28.181Z,57.57
2022-11-19T18:03:56.547Z,57.46
2022-11-19T18:06:24.931Z,57.60
2022-11-19T18:08:53.351Z,57.45
2022-11-19T18:11:25.524Z,57.51
2022-11-19T18:13:57.253Z,57.36
2022-11-19T18:16:29.077Z,57.42
2022-11-19T18:18:57.453Z,57.40
2022-11-19T18:21:27.231Z,57.44
2022-11-19T18:23:55.600Z,57.29
2022-11-19T18:26:25.289Z,57.44
2022-11-19T18:28:53.594Z,57.66
2022-11-19T18:31:24.427Z,57.29
2022-11-19T18:33:53.060Z,57.33
2022-11-19T18:36:22.016Z,57.44
2022-11-19T18:38:50.268Z,57.51
2022-11-19T18:41:19.992Z,57.42
2022-11-19T18:44:07.481Z,57.21
2022-11-19T18:46:35.795Z,57.45
2022-11-19T18:49:04.433Z,57.42
2022-11-19T18:51:33.219Z,57.91
2022-11-19T18:54:01.801Z,57.40
2022-11-19T18:56:30.257Z,57.45
2022-11-19T18:59:04.481Z,57.49
2022-11-19T19:01:33.807Z,57.42
2022-11-19T19:04:02.333Z,57.60
2022-11-19T19:06:30.723Z,57.50
2022-11-19T19:08:59.183Z,57.35
2022-11-19T19:11:45.156Z,57.64
2022-11-19T19:14:14.883Z,57.50
2022-11-19T19:16:43.369Z,57.73
2022-11-19T19:19:14.120Z,57.30
2022-11-19T19:21:42.597Z,57.67
2022-11-19T19:24:11.419Z,57.77
2022-11-19T19:26:39.810Z,57.72
2022-11-19T19:29:08.264Z,57.77
2022-11-19T19:31:38.122Z,57.79
2022-11-19T19:34:06.670Z,57.67
2022-11-19T19:36:35.548Z,57.82
2022-11-19T19:39:04.403Z,57.53
2022-11-19T19:41:33.466Z,57.60
2022-11-19T19:44:04.038Z,57.82
2022-11-19T19:46:33.649Z,57.70
2022-11-19T19:49:03.428Z,57.50
2022-11-19T19:51:32.808Z,57.59
2022-11-19T19:54:01.540Z,57.77
2022-11-19T19:56:32.133Z,57.75
2022-11-19T19:59:01.770Z,57.51
2022-11-19T20:01:32.623Z,57.57
2022-11-19T20:04:05.181Z,57.69
2022-11-19T20:06:35.323Z,57.58
2022-11-19T20:09:08.394Z,57.46
2022-11-19T20:11:37.968Z,57.42
2022-11-19T20:14:06.861Z,57.61
2022-11-19T20:16:36.134Z,57.32
2022-11-19T20:19:07.312Z,57.55
2022-11-19T20:21:36.532Z,57.34
2022-11-19T20:24:10.455Z,57.45
2022-11-19T20:26:42.479Z,57.67
2022-11-19T20:29:14.397Z,57.66
2022-11-19T20:31:47.805Z,57.60
2022-11-19T20:34:18.420Z,57.52
2022-11-19T20:36:46.759Z,57.43
2022-11-19T20:39:15.037Z,57.42
2022-11-19T20:42:00.574Z,57.41
2022-11-19T20:44:28.906Z,57.41
2022-11-19T20:46:59.164Z,57.53
2022-11-19T20:49:30.596Z,57.55
2022-11-19T20:51:59.590Z,57.46
2022-11-19T20:54:28.454Z,57.48
2022-11-19T20:56:59.147Z,57.56
2022-11-19T20:59:29.688Z,57.39
2022-11-19T21:01:58.727Z,57.55
2022-11-19T21:04:31.377Z,57.55
2022-11-19T21:06:59.714Z,57.43
2022-11-19T21:09:28.147Z,57.36
2022-11-19T21:11:56.444Z,57.37
2022-11-19T21:14:24.779Z,57.24
2022-11-19T21:16:53.021Z,57.30
2022-11-19T21:19:21.527Z,57.31
2022-11-19T21:21:51.318Z,57.29
2022-11-19T21:24:19.808Z,57.18
2022-11-19T21:26:48.110Z,57.31
2022-11-19T21:29:16.441Z,57.36
2022-11-19T21:31:46.698Z,57.32
2022-11-19T21:34:17.777Z,57.11
2022-11-19T21:36:47.276Z,56.90
2022-11-19T21:39:20.821Z,57.24
2022-11-19T21:41:49.533Z,57.19
2022-11-19T21:44:21.419Z,57.05
2022-11-19T21:46:50.494Z,57.23
2022-11-19T21:49:19.506Z,57.19
2022-11-19T21:51:49.065Z,57.20
2022-11-19T21:54:18.907Z,57.07
2022-11-19T21:56:47.456Z,57.11
2022-11-19T21:59:15.695Z,57.11
2022-11-19T22:01:44.042Z,57.23
2022-11-19T22:04:15.433Z,57.20
2022-11-19T22:06:43.758Z,57.24
2022-11-19T22:09:12.119Z,57.12
2022-11-19T22:11:41.816Z,57.15
2022-11-19T22:14:10.765Z,57.21
2022-11-19T22:16:41.104Z,57.21
2022-11-19T22:19:11.544Z,57.06
2022-11-19T22:21:40.343Z,57.01
2022-11-19T22:24:08.771Z,57.01
2022-11-19T22:26:37.143Z,57.00
2022-11-19T22:29:06.917Z,57.06
2022-11-19T22:31:35.229Z,56.96
2022-11-19T22:34:03.583Z,56.81
2022-11-19T22:36:34.307Z,57.13
2022-11-19T22:39:02.927Z,56.81
2022-11-19T22:41:31.415Z,56.93
2022-11-19T22:43:59.829Z,56.98
2022-11-19T22:46:29.848Z,56.85
2022-11-19T22:48:58.251Z,56.80
2022-11-19T22:51:27.427Z,56.73
2022-11-19T22:53:57.146Z,56.88
2022-11-19T22:56:28.489Z,56.74
2022-11-19T22:58:57.772Z,56.70
2022-11-19T23:01:30.140Z,56.86
2022-11-19T23:04:01.881Z,56.84
2022-11-19T23:06:30.458Z,56.82
2022-11-19T23:08:58.856Z,56.94
2022-11-19T23:11:53.101Z,56.77
2022-11-19T23:14:21.888Z,56.94
2022-11-19T23:16:51.624Z,56.79
2022-11-19T23:19:20.400Z,56.95
2022-11-19T23:21:49.276Z,56.90
2022-11-19T23:24:17.852Z,56.82
2022-11-19T23:26:46.153Z,56.99
2022-11-19T23:29:14.514Z,56.85
2022-11-19T23:31:42.919Z,56.90
2022-11-19T23:34:12.769Z,57.11
2022-11-19T23:36:42.805Z,57.17
2022-11-19T23:39:17.550Z,57.18
2022-11-19T23:41:46.853Z,57.04
2022-11-19T23:44:15.313Z,57.23
2022-11-19T23:46:43.840Z,57.16
2022-11-19T23:49:13.751Z,57.31
2022-11-19T23:51:42.164Z,57.13
2022-11-19T23:54:14.264Z,57.06
2022-11-19T23:56:42.864Z,56.96
2022-11-19T23:59:11.325Z,57.23
